Amga, Russia
Current Conditions -  °F | °C
As of 5:00 PM on Monday 24 Nov 2014 (Local Time) from UEEE Reporting Station
Clear Clear  
Wind Chill: -33°   Ceiling: Unl
Heat Index: -20°   Visibility: 6mi
Dew Point: -26°   Wind: 4mph
Humidity: 76%   Direction: 360°N
Pressure: 29.88"   Gusts: NA
Location:  60.9°N, 131.96°E
Report Text: UEEE 240800Z 36002MPS CAVOK M29/M32 Q1012 NOSIG RMK QFE75023490150
Loading
Personal Weather Stations






























Interactive Weather Map New forecast layout! Learn more

10-Day Weather Forecast

Advertisements
Track Severe Weather on mobile